Time;durP1;ratioP1;P1;durP2;ratioP2;P2;SDS_P1;SDS_P2;PMS_P1;PMS_P2;Temp;Humidity;BMP_temperature;BMP_pressure;BME280_temperature;BME280_humidity;BME280_pressure;Samples;Min_cycle;Max_cycle;Signal;HPM_P1;HPM_P2
2022/08/04 00:00:30;;;;;;;3.17;2.33;;;;;;;;;;5045077;27;81611;-54
2022/08/04 00:03:02;;;;;;;4.73;2.87;;;;;;;;;;5044477;28;83866;-54
2022/08/04 00:05:30;;;;;;;3.70;2.53;;;;;;;;;;5044352;28;83295;-55
2022/08/04 00:08:03;;;;;;;3.60;2.53;;;;;;;;;;5045004;28;82189;-54
2022/08/04 00:10:33;;;;;;;4.47;2.80;;;;;;;;;;5045095;27;81845;-55
2022/08/04 00:13:03;;;;;;;3.33;2.50;;;;;;;;;;5044799;28;84093;-53
2022/08/04 00:15:32;;;;;;;6.87;3.07;;;;;;;;;;5044539;27;82260;-53
2022/08/04 00:18:00;;;;;;;3.53;2.40;;;;;;;;;;5044807;27;81613;-53
2022/08/04 00:20:29;;;;;;;3.70;2.40;;;;;;;;;;5044892;28;81760;-54
2022/08/04 00:22:58;;;;;;;3.90;2.50;;;;;;;;;;5044370;27;81682;-53
2022/08/04 00:25:26;;;;;;;3.83;3.00;;;;;;;;;;5044542;27;81860;-54
2022/08/04 00:27:55;;;;;;;5.73;2.67;;;;;;;;;;5044843;27;81814;-53
2022/08/04 00:30:24;;;;;;;4.67;3.13;;;;;;;;;;5044218;27;81908;-53
2022/08/04 00:32:53;;;;;;;4.10;3.07;;;;;;;;;;5043926;27;81837;-53
2022/08/04 00:35:21;;;;;;;11.27;6.20;;;;;;;;;;5044715;27;82512;-53
2022/08/04 00:37:49;;;;;;;5.53;3.97;;;;;;;;;;5044670;27;82476;-53
2022/08/04 00:40:23;;;;;;;6.23;3.70;;;;;;;;;;5044294;28;81762;-53
2022/08/04 00:42:52;;;;;;;6.17;3.93;;;;;;;;;;5043532;27;81725;-53
2022/08/04 00:45:41;;;;;;;5.10;3.17;;;;;;;;;;5043820;27;83100;-52
2022/08/04 00:48:36;;;;;;;6.73;4.13;;;;;;;;;;5043777;27;82422;-53
2022/08/04 00:51:08;;;;;;;6.90;3.47;;;;;;;;;;5044038;28;81847;-53
2022/08/04 00:53:37;;;;;;;5.07;3.23;;;;;;;;;;5043634;28;83891;-53
2022/08/04 00:56:23;;;;;;;5.97;4.47;;;;;;;;;;5043110;27;83947;-53
2022/08/04 00:58:55;;;;;;;6.93;4.17;;;;;;;;;;5043413;27;84824;-54
2022/08/04 01:01:29;;;;;;;4.23;3.43;;;;;;;;;;5043116;28;81840;-54
2022/08/04 01:04:03;;;;;;;7.33;4.30;;;;;;;;;;5041126;27;83724;-53
2022/08/04 01:06:35;;;;;;;6.13;3.87;;;;;;;;;;5043376;27;83197;-54
2022/08/04 01:09:20;;;;;;;7.67;3.90;;;;;;;;;;5043706;28;83936;-54
2022/08/04 01:11:52;;;;;;;4.37;3.53;;;;;;;;;;5043547;27;82959;-53
2022/08/04 01:14:28;;;;;;;4.80;3.87;;;;;;;;;;5043823;27;83805;-53
2022/08/04 01:16:58;;;;;;;6.00;4.47;;;;;;;;;;5043086;27;82517;-53
2022/08/04 01:19:54;;;;;;;6.50;4.50;;;;;;;;;;5046959;28;82943;-53
2022/08/04 01:22:43;;;;;;;6.13;4.17;;;;;;;;;;5046738;28;82934;-54
2022/08/04 01:25:17;;;;;;;5.53;3.80;;;;;;;;;;5028960;27;82033;-53
2022/08/04 01:27:58;;;;;;;7.90;4.63;;;;;;;;;;5046907;27;83075;-54
2022/08/04 01:30:28;;;;;;;11.23;4.33;;;;;;;;;;5046079;27;83045;-54
2022/08/04 01:32:58;;;;;;;5.90;3.90;;;;;;;;;;5046280;28;81934;-54
2022/08/04 01:35:28;;;;;;;6.03;3.77;;;;;;;;;;5046661;27;82866;-54
2022/08/04 01:38:17;;;;;;;4.57;4.07;;;;;;;;;;5046822;27;82181;-54
2022/08/04 01:40:48;;;;;;;7.77;4.10;;;;;;;;;;5047068;27;82604;-53
2022/08/04 01:43:17;;;;;;;5.20;4.10;;;;;;;;;;5046724;28;81900;-53
2022/08/04 01:45:46;;;;;;;5.37;3.83;;;;;;;;;;5046814;27;81885;-53
2022/08/04 01:48:15;;;;;;;5.97;4.43;;;;;;;;;;5046472;27;85059;-54
2022/08/04 01:50:43;;;;;;;6.23;3.70;;;;;;;;;;5046355;27;83652;-54
2022/08/04 01:53:11;;;;;;;5.90;4.10;;;;;;;;;;5045955;27;81898;-54
2022/08/04 01:55:40;;;;;;;5.93;3.20;;;;;;;;;;5045858;27;82760;-53
2022/08/04 01:58:22;;;;;;;6.77;3.80;;;;;;;;;;5046436;27;83958;-55
2022/08/04 02:00:56;;;;;;;5.03;3.60;;;;;;;;;;5046158;27;82627;-53
2022/08/04 02:03:25;;;;;;;5.17;3.50;;;;;;;;;;5045762;27;81997;-54
2022/08/04 02:06:22;;;;;;;6.37;3.10;;;;;;;;;;5045856;27;82467;-54
2022/08/04 02:08:52;;;;;;;5.63;3.90;;;;;;;;;;5046255;27;83268;-54
2022/08/04 02:11:21;;;;;;;4.97;3.30;;;;;;;;;;5046128;28;83924;-54
2022/08/04 02:13:52;;;;;;;6.20;4.17;;;;;;;;;;5045786;27;82743;-54
2022/08/04 02:16:24;;;;;;;5.80;2.70;;;;;;;;;;5045824;27;83000;-54
2022/08/04 02:19:13;;;;;;;4.93;2.83;;;;;;;;;;5045718;27;83173;-54
2022/08/04 02:21:42;;;;;;;5.03;2.97;;;;;;;;;;5023200;28;83046;-54
2022/08/04 02:24:12;;;;;;;5.50;2.53;;;;;;;;;;5023507;28;82034;-55
2022/08/04 02:26:41;;;;;;;5.80;3.17;;;;;;;;;;5023501;28;82812;-54
2022/08/04 02:29:12;;;;;;;3.40;2.43;;;;;;;;;;5022476;28;84235;-53
2022/08/04 02:31:44;;;;;;;2.97;2.30;;;;;;;;;;5023269;28;82975;-54
2022/08/04 02:34:13;;;;;;;3.20;2.47;;;;;;;;;;5023040;28;82096;-53
2022/08/04 02:36:42;;;;;;;2.47;2.27;;;;;;;;;;5023291;28;82639;-54
2022/08/04 02:39:10;;;;;;;2.73;2.40;;;;;;;;;;5027244;28;85269;-54
2022/08/04 02:41:39;;;;;;;5.03;3.17;;;;;;;;;;5045619;27;83318;-53
2022/08/04 02:44:08;;;;;;;3.73;2.40;;;;;;;;;;5045657;28;81970;-53
2022/08/04 02:46:37;;;;;;;4.57;3.23;;;;;;;;;;5045546;28;83959;-54
2022/08/04 02:49:08;;;;;;;5.73;2.90;;;;;;;;;;5043919;27;83059;-54
2022/08/04 02:51:36;;;;;;;4.87;3.33;;;;;;;;;;5045407;27;82932;-54
2022/08/04 02:54:05;;;;;;;4.20;2.70;;;;;;;;;;5045584;28;81919;-52
2022/08/04 02:56:34;;;;;;;3.13;2.60;;;;;;;;;;5045992;28;84116;-53
2022/08/04 02:59:05;;;;;;;3.63;2.70;;;;;;;;;;5045386;27;82899;-55
2022/08/04 03:01:33;;;;;;;6.13;2.90;;;;;;;;;;5045007;27;82824;-54
2022/08/04 03:04:05;;;;;;;4.67;2.97;;;;;;;;;;5044978;27;82595;-53
2022/08/04 03:06:43;;;;;;;5.07;3.27;;;;;;;;;;5045398;27;82943;-54
2022/08/04 03:09:38;;;;;;;4.27;3.07;;;;;;;;;;5045108;27;83543;-54
2022/08/04 03:12:12;;;;;;;4.80;3.00;;;;;;;;;;5021173;27;82964;-54
2022/08/04 03:14:54;;;;;;;4.73;3.13;;;;;;;;;;5045590;27;81949;-54
2022/08/04 03:17:37;;;;;;;5.10;3.47;;;;;;;;;;5045522;28;83992;-54
2022/08/04 03:20:38;;;;;;;6.80;3.73;;;;;;;;;;5045456;27;82881;-54
2022/08/04 03:23:22;;;;;;;6.33;3.07;;;;;;;;;;5045220;27;82821;-53
2022/08/04 03:25:58;;;;;;;7.67;3.67;;;;;;;;;;5043670;27;81946;-54
2022/08/04 03:28:43;;;;;;;7.00;3.13;;;;;;;;;;5045295;27;82059;-54
2022/08/04 03:31:21;;;;;;;4.43;2.90;;;;;;;;;;5043983;27;85197;-53
2022/08/04 03:33:53;;;;;;;6.70;3.50;;;;;;;;;;5044897;27;83748;-54
2022/08/04 03:36:38;;;;;;;6.17;3.50;;;;;;;;;;5045387;27;82005;-54
2022/08/04 03:39:25;;;;;;;4.23;3.27;;;;;;;;;;5044983;28;83910;-54
2022/08/04 03:42:02;;;;;;;4.67;2.97;;;;;;;;;;5044448;27;83073;-54
2022/08/04 03:44:54;;;;;;;3.60;2.60;;;;;;;;;;5044725;27;82774;-54
2022/08/04 03:47:36;;;;;;;4.20;2.77;;;;;;;;;;5044839;28;81996;-54
2022/08/04 03:50:30;;;;;;;4.60;3.00;;;;;;;;;;5045307;27;83868;-54
2022/08/04 03:53:09;;;;;;;4.03;2.83;;;;;;;;;;5045272;28;84093;-54
2022/08/04 03:55:43;;;;;;;5.17;3.13;;;;;;;;;;5044906;28;83822;-54
2022/08/04 03:58:26;;;;;;;3.87;2.07;;;;;;;;;;5044114;28;82953;-54
2022/08/04 04:01:05;;;;;;;5.17;3.03;;;;;;;;;;5044282;27;81922;-54
2022/08/04 04:03:41;;;;;;;4.13;2.90;;;;;;;;;;5044515;27;82983;-54
2022/08/04 04:06:21;;;;;;;3.00;2.70;;;;;;;;;;5044100;27;83008;-53
2022/08/04 04:09:08;;;;;;;3.93;2.73;;;;;;;;;;5044462;27;81881;-54
2022/08/04 04:12:02;;;;;;;3.97;2.73;;;;;;;;;;5044653;27;83858;-55
2022/08/04 04:14:45;;;;;;;3.67;2.23;;;;;;;;;;5021287;27;83057;-53
2022/08/04 04:17:21;;;;;;;3.33;2.57;;;;;;;;;;5043758;28;82745;-53
2022/08/04 04:20:14;;;;;;;2.50;2.00;;;;;;;;;;5044821;27;81810;-53
2022/08/04 04:22:50;;;;;;;4.37;2.73;;;;;;;;;;5034473;27;84229;-54
2022/08/04 04:25:22;;;;;;;3.67;2.47;;;;;;;;;;5043980;28;85008;-53
2022/08/04 04:27:53;;;;;;;3.37;2.27;;;;;;;;;;5042444;27;83950;-53
2022/08/04 04:30:23;;;;;;;4.10;2.63;;;;;;;;;;5042048;28;82322;-53
2022/08/04 04:33:02;;;;;;;3.03;2.27;;;;;;;;;;5042550;27;84089;-53
2022/08/04 04:35:33;;;;;;;2.80;2.37;;;;;;;;;;5043726;27;84149;-53
2022/08/04 04:38:08;;;;;;;4.37;2.97;;;;;;;;;;5044178;27;82981;-53
2022/08/04 04:40:41;;;;;;;3.73;2.50;;;;;;;;;;5044354;27;81962;-53
2022/08/04 04:43:15;;;;;;;3.73;2.73;;;;;;;;;;5044151;27;82803;-53
2022/08/04 04:45:45;;;;;;;3.03;2.70;;;;;;;;;;5043931;27;83988;-53
2022/08/04 04:48:18;;;;;;;4.57;3.27;;;;;;;;;;5044274;27;83853;-53
2022/08/04 04:50:50;;;;;;;3.47;2.90;;;;;;;;;;5043857;28;82862;-55
2022/08/04 04:53:21;;;;;;;5.80;2.97;;;;;;;;;;5046175;27;84122;-55
2022/08/04 04:55:52;;;;;;;3.83;2.80;;;;;;;;;;5047512;27;84358;-53
2022/08/04 04:58:20;;;;;;;4.93;2.83;;;;;;;;;;5047423;27;82853;-53
2022/08/04 05:00:53;;;;;;;5.17;2.57;;;;;;;;;;5047169;28;81931;-53
2022/08/04 05:03:27;;;;;;;2.67;2.20;;;;;;;;;;5047096;27;83878;-53
2022/08/04 05:06:01;;;;;;;3.00;2.70;;;;;;;;;;5046957;28;83038;-54
2022/08/04 05:08:53;;;;;;;3.67;2.90;;;;;;;;;;5047621;28;83872;-54
2022/08/04 05:11:40;;;;;;;3.90;2.47;;;;;;;;;;5037151;27;81920;-53
2022/08/04 05:14:09;;;;;;;3.23;2.57;;;;;;;;;;5047515;28;82792;-54
2022/08/04 05:16:58;;;;;;;3.10;1.90;;;;;;;;;;5047008;27;83629;-54
2022/08/04 05:19:31;;;;;;;5.47;2.57;;;;;;;;;;5047256;27;83934;-55
2022/08/04 05:22:02;;;;;;;2.60;1.87;;;;;;;;;;5047363;27;81852;-54
2022/08/04 05:24:31;;;;;;;2.53;2.30;;;;;;;;;;5047432;27;82910;-54
2022/08/04 05:27:03;;;;;;;3.17;1.90;;;;;;;;;;5047084;27;82799;-54
2022/08/04 05:29:32;;;;;;;4.07;2.13;;;;;;;;;;5046693;27;82800;-54
2022/08/04 05:32:02;;;;;;;4.47;2.00;;;;;;;;;;5046194;27;81844;-54
2022/08/04 05:34:32;;;;;;;2.90;2.17;;;;;;;;;;5047201;28;83961;-54
2022/08/04 05:37:02;;;;;;;2.37;1.93;;;;;;;;;;5047031;28;84068;-53
2022/08/04 05:39:31;;;;;;;2.10;1.50;;;;;;;;;;5047085;28;82547;-54
2022/08/04 05:42:01;;;;;;;3.07;2.20;;;;;;;;;;5046372;27;83006;-54
2022/08/04 05:44:33;;;;;;;2.53;1.47;;;;;;;;;;5046581;27;82718;-54
2022/08/04 05:47:03;;;;;;;2.67;1.53;;;;;;;;;;5046541;28;84104;-54
2022/08/04 05:49:33;;;;;;;1.60;1.50;;;;;;;;;;5046790;27;83961;-54
2022/08/04 05:52:01;;;;;;;2.43;1.40;;;;;;;;;;5046919;28;81964;-54
2022/08/04 05:54:30;;;;;;;2.03;1.53;;;;;;;;;;5046955;27;83063;-54
2022/08/04 05:56:58;;;;;;;1.20;1.10;;;;;;;;;;5046462;27;84036;-54
2022/08/04 05:59:27;;;;;;;2.17;1.50;;;;;;;;;;5046598;27;83780;-54
2022/08/04 06:01:56;;;;;;;2.20;1.20;;;;;;;;;;5038804;27;81968;-54
2022/08/04 06:04:25;;;;;;;1.20;1.10;;;;;;;;;;5029315;27;83753;-54
2022/08/04 06:06:55;;;;;;;1.67;1.10;;;;;;;;;;5039417;28;84042;-54
2022/08/04 06:09:23;;;;;;;1.40;1.10;;;;;;;;;;5028565;27;83710;-55
2022/08/04 06:11:52;;;;;;;2.07;1.30;;;;;;;;;;5027321;28;81801;-53
2022/08/04 06:14:33;;;;;;;1.27;1.07;;;;;;;;;;5025952;28;84010;-55
2022/08/04 06:17:01;;;;;;;1.07;0.97;;;;;;;;;;5039012;28;83090;-53
2022/08/04 06:19:30;;;;;;;1.43;1.10;;;;;;;;;;5046125;27;82773;-53
2022/08/04 06:22:20;;;;;;;1.17;1.07;;;;;;;;;;5026283;27;82676;-54
2022/08/04 06:24:51;;;;;;;1.10;1.07;;;;;;;;;;5026534;28;84024;-53
2022/08/04 06:27:19;;;;;;;2.23;1.10;;;;;;;;;;5035066;28;83106;-53
2022/08/04 06:29:49;;;;;;;1.20;1.10;;;;;;;;;;5044499;27;83007;-53
2022/08/04 06:32:26;;;;;;;2.50;1.10;;;;;;;;;;5033221;27;83079;-53
2022/08/04 06:35:05;;;;;;;1.53;1.10;;;;;;;;;;5042332;28;82796;-55
2022/08/04 06:37:34;;;;;;;2.13;1.10;;;;;;;;;;5046359;27;83247;-53
2022/08/04 06:40:11;;;;;;;4.97;1.97;;;;;;;;;;5045898;27;83895;-54
2022/08/04 06:42:59;;;;;;;23.63;5.37;;;;;;;;;;5046412;27;81906;-54
2022/08/04 06:45:28;;;;;;;7.47;3.30;;;;;;;;;;5045715;27;82118;-54
2022/08/04 06:47:56;;;;;;;4.23;1.80;;;;;;;;;;5045833;27;83235;-53
2022/08/04 06:50:24;;;;;;;12.10;3.80;;;;;;;;;;5041339;28;84120;-53
2022/08/04 06:53:14;;;;;;;3.10;2.03;;;;;;;;;;5045870;27;81804;-53
2022/08/04 06:55:43;;;;;;;3.00;1.87;;;;;;;;;;5045028;27;82864;-53
2022/08/04 06:58:11;;;;;;;4.63;1.43;;;;;;;;;;5045157;27;82875;-53
2022/08/04 07:00:40;;;;;;;7.13;1.73;;;;;;;;;;5045408;27;83891;-53
2022/08/04 07:03:08;;;;;;;3.33;1.77;;;;;;;;;;5045551;28;82109;-53
2022/08/04 07:05:37;;;;;;;1.67;1.57;;;;;;;;;;5041864;27;83070;-54
2022/08/04 07:08:05;;;;;;;3.37;2.07;;;;;;;;;;5043091;28;84123;-53
2022/08/04 07:10:35;;;;;;;2.30;1.53;;;;;;;;;;5043756;27;82780;-54
2022/08/04 07:13:03;;;;;;;2.30;1.13;;;;;;;;;;5044816;27;82237;-54
2022/08/04 07:15:31;;;;;;;1.23;1.00;;;;;;;;;;5045004;27;86329;-53
2022/08/04 07:18:02;;;;;;;1.97;1.30;;;;;;;;;;5045039;27;83124;-54
2022/08/04 07:20:30;;;;;;;2.30;1.33;;;;;;;;;;5045353;28;83846;-52
2022/08/04 07:23:03;;;;;;;1.57;1.10;;;;;;;;;;5044625;27;82739;-52
2022/08/04 07:25:32;;;;;;;1.17;1.00;;;;;;;;;;5044909;27;81993;-52
2022/08/04 07:28:22;;;;;;;3.10;1.27;;;;;;;;;;5045144;27;82595;-53
2022/08/04 07:30:50;;;;;;;4.53;1.00;;;;;;;;;;5044815;27;82697;-52
2022/08/04 07:33:19;;;;;;;1.27;0.93;;;;;;;;;;5044578;27;81922;-52
2022/08/04 07:35:48;;;;;;;1.50;1.00;;;;;;;;;;5044766;27;82790;-52
2022/08/04 07:38:36;;;;;;;1.87;1.20;;;;;;;;;;5045859;27;82974;-53
2022/08/04 07:41:20;;;;;;;1.60;0.87;;;;;;;;;;5045248;27;82738;-54
2022/08/04 07:44:06;;;;;;;4.10;0.93;;;;;;;;;;5045226;27;81686;-53
2022/08/04 07:46:34;;;;;;;1.93;0.77;;;;;;;;;;5044939;27;82861;-52
2022/08/04 07:49:02;;;;;;;1.17;0.97;;;;;;;;;;5044414;27;83937;-53
2022/08/04 07:51:31;;;;;;;3.17;1.13;;;;;;;;;;5044903;27;84865;-53
2022/08/04 07:54:02;;;;;;;0.50;0.50;;;;;;;;;;5045532;28;81809;-52
2022/08/04 07:56:30;;;;;;;2.50;0.90;;;;;;;;;;5045004;27;81997;-54
2022/08/04 07:58:58;;;;;;;1.77;1.10;;;;;;;;;;5045168;28;83771;-53
2022/08/04 08:01:28;;;;;;;1.00;0.73;;;;;;;;;;5044091;27;82903;-53
2022/08/04 08:03:57;;;;;;;1.23;0.97;;;;;;;;;;5044828;27;82029;-53
2022/08/04 08:06:25;;;;;;;2.60;0.70;;;;;;;;;;5044976;27;83917;-53
2022/08/04 08:09:01;;;;;;;2.23;0.93;;;;;;;;;;5044398;27;84009;-53
2022/08/04 08:11:41;;;;;;;2.77;1.00;;;;;;;;;;5044321;27;83032;-53
2022/08/04 08:14:30;;;;;;;1.90;0.83;;;;;;;;;;5042274;28;83194;-52
2022/08/04 08:17:01;;;;;;;1.30;0.90;;;;;;;;;;5043929;27;83902;-52
2022/08/04 08:19:30;;;;;;;3.80;1.47;;;;;;;;;;5044427;27;83191;-53
2022/08/04 08:21:58;;;;;;;1.20;0.77;;;;;;;;;;5044616;28;83915;-53
2022/08/04 08:24:28;;;;;;;1.97;0.60;;;;;;;;;;5044234;27;81891;-53
2022/08/04 08:26:57;;;;;;;3.33;1.00;;;;;;;;;;5044218;27;81849;-53
2022/08/04 08:29:25;;;;;;;0.70;0.70;;;;;;;;;;5044014;28;83004;-52
2022/08/04 08:31:54;;;;;;;0.50;0.50;;;;;;;;;;5044029;27;83810;-52
2022/08/04 08:34:27;;;;;;;1.00;0.83;;;;;;;;;;5044696;27;81792;-53
2022/08/04 08:36:58;;;;;;;1.10;0.93;;;;;;;;;;5044012;27;82777;-53
2022/08/04 08:39:29;;;;;;;2.30;0.77;;;;;;;;;;5043598;28;85125;-53
2022/08/04 08:42:15;;;;;;;2.33;1.20;;;;;;;;;;5044195;27;82453;-53
2022/08/04 08:44:53;;;;;;;4.33;1.07;;;;;;;;;;5044132;27;81890;-53
2022/08/04 08:47:33;;;;;;;3.20;1.13;;;;;;;;;;5043856;27;82802;-53
2022/08/04 08:50:36;;;;;;;1.00;0.90;;;;;;;;;;5043851;27;82030;-53
2022/08/04 08:53:27;;;;;;;2.70;0.80;;;;;;;;;;5042783;27;83364;-52
2022/08/04 08:56:02;;;;;;;0.80;0.77;;;;;;;;;;5043894;27;81951;-52
2022/08/04 08:58:35;;;;;;;2.60;0.70;;;;;;;;;;5043332;27;84029;-53
2022/08/04 09:01:07;;;;;;;2.50;1.00;;;;;;;;;;5042861;27;82107;-53
2022/08/04 09:03:42;;;;;;;0.80;0.70;;;;;;;;;;5043267;27;81947;-53
2022/08/04 09:06:15;;;;;;;0.80;0.80;;;;;;;;;;5043181;28;82919;-52
2022/08/04 09:08:54;;;;;;;0.60;0.60;;;;;;;;;;5042870;27;82810;-53
2022/08/04 09:11:23;;;;;;;1.03;0.60;;;;;;;;;;5043618;27;83204;-52
2022/08/04 09:13:53;;;;;;;3.10;1.00;;;;;;;;;;5043742;27;82842;-52
2022/08/04 09:16:21;;;;;;;0.73;0.70;;;;;;;;;;5043550;27;81971;-53
2022/08/04 09:18:53;;;;;;;1.37;0.80;;;;;;;;;;5043501;27;83759;-52
2022/08/04 09:21:24;;;;;;;1.03;0.93;;;;;;;;;;5043278;28;84216;-53
2022/08/04 09:23:56;;;;;;;0.60;0.60;;;;;;;;;;5043222;27;83318;-53
2022/08/04 09:26:27;;;;;;;1.07;0.63;;;;;;;;;;5043639;27;81911;-53
2022/08/04 09:28:58;;;;;;;2.43;1.10;;;;;;;;;;5043387;27;82991;-53
2022/08/04 09:31:29;;;;;;;1.43;0.80;;;;;;;;;;5042324;27;82889;-53
2022/08/04 09:34:21;;;;;;;1.30;1.13;;;;;;;;;;5043095;27;83246;-53
2022/08/04 09:36:52;;;;;;;1.00;0.90;;;;;;;;;;5043440;27;81955;-52
2022/08/04 09:39:24;;;;;;;1.50;1.30;;;;;;;;;;5045301;27;82993;-52
2022/08/04 09:41:59;;;;;;;2.47;1.20;;;;;;;;;;5046923;27;84198;-54
2022/08/04 09:44:29;;;;;;;1.20;1.07;;;;;;;;;;5046378;27;82854;-53
2022/08/04 09:47:18;;;;;;;1.60;1.10;;;;;;;;;;5046285;27;81785;-52
2022/08/04 09:49:48;;;;;;;1.43;1.30;;;;;;;;;;5047189;27;81635;-53
2022/08/04 09:52:24;;;;;;;0.77;0.70;;;;;;;;;;5046298;28;84253;-54
2022/08/04 09:54:57;;;;;;;1.37;0.97;;;;;;;;;;5046363;27;82783;-53
2022/08/04 09:57:30;;;;;;;3.07;1.20;;;;;;;;;;5045912;27;83024;-53
2022/08/04 09:59:59;;;;;;;1.00;0.90;;;;;;;;;;5046420;27;81983;-53
2022/08/04 10:02:29;;;;;;;1.20;1.10;;;;;;;;;;5045912;27;84661;-53
2022/08/04 10:04:58;;;;;;;1.10;1.00;;;;;;;;;;5046336;27;83839;-53
2022/08/04 10:07:30;;;;;;;2.27;1.50;;;;;;;;;;5046019;27;82044;-53
2022/08/04 10:10:09;;;;;;;2.83;1.03;;;;;;;;;;5046437;28;82747;-53
2022/08/04 10:12:40;;;;;;;1.77;1.40;;;;;;;;;;5046102;28;84320;-53
2022/08/04 10:15:10;;;;;;;2.33;1.13;;;;;;;;;;5046968;28;83916;-53
2022/08/04 10:17:40;;;;;;;4.50;1.30;;;;;;;;;;5046288;27;81918;-53
2022/08/04 10:20:20;;;;;;;2.13;1.53;;;;;;;;;;5046242;27;82661;-53
2022/08/04 10:23:12;;;;;;;2.33;1.60;;;;;;;;;;5045850;27;86295;-52
2022/08/04 10:25:46;;;;;;;2.17;1.40;;;;;;;;;;5046162;27;83903;-53
2022/08/04 10:28:36;;;;;;;2.97;2.03;;;;;;;;;;5046578;27;81678;-52
2022/08/04 10:31:05;;;;;;;3.37;1.53;;;;;;;;;;5045806;28;83997;-53
2022/08/04 10:33:34;;;;;;;3.40;1.90;;;;;;;;;;5045883;27;83242;-53
2022/08/04 10:36:04;;;;;;;4.77;2.07;;;;;;;;;;5045873;27;82820;-53
2022/08/04 10:38:32;;;;;;;3.13;1.70;;;;;;;;;;5046017;27;82704;-53
2022/08/04 10:41:02;;;;;;;2.97;2.13;;;;;;;;;;5045780;27;81643;-53
2022/08/04 10:43:34;;;;;;;2.67;1.87;;;;;;;;;;5046094;27;83065;-53
2022/08/04 10:46:02;;;;;;;3.90;2.57;;;;;;;;;;5046041;27;83811;-53
2022/08/04 10:48:34;;;;;;;3.70;2.70;;;;;;;;;;5045961;27;82825;-53
2022/08/04 10:51:04;;;;;;;4.07;2.60;;;;;;;;;;5045874;27;82999;-53
2022/08/04 10:53:33;;;;;;;2.80;2.33;;;;;;;;;;5045681;27;84258;-53
2022/08/04 10:56:05;;;;;;;3.90;2.40;;;;;;;;;;5045580;27;82925;-53
2022/08/04 10:58:37;;;;;;;4.50;2.80;;;;;;;;;;5045395;27;81984;-53
2022/08/04 11:01:16;;;;;;;3.17;2.17;;;;;;;;;;5044883;27;83851;-53
2022/08/04 11:04:05;;;;;;;3.27;2.40;;;;;;;;;;5045239;27;82613;-53
2022/08/04 11:06:33;;;;;;;2.63;1.70;;;;;;;;;;5046188;27;82935;-52
2022/08/04 11:09:01;;;;;;;2.87;2.37;;;;;;;;;;5045813;27;81879;-53
2022/08/04 11:11:33;;;;;;;3.70;2.70;;;;;;;;;;5045471;27;82051;-53
2022/08/04 11:14:23;;;;;;;2.43;2.23;;;;;;;;;;5044880;27;83572;-53
2022/08/04 11:16:52;;;;;;;3.47;2.63;;;;;;;;;;5045173;27;83950;-53
2022/08/04 11:19:24;;;;;;;5.73;3.03;;;;;;;;;;5045371;27;82530;-52
2022/08/04 11:22:15;;;;;;;5.37;3.10;;;;;;;;;;5045375;27;82750;-53
2022/08/04 11:24:45;;;;;;;4.67;3.03;;;;;;;;;;5044556;27;83103;-53
2022/08/04 11:27:16;;;;;;;3.57;3.00;;;;;;;;;;5045102;27;82813;-53
2022/08/04 11:29:46;;;;;;;4.67;3.13;;;;;;;;;;5045222;27;82094;-53
2022/08/04 11:32:17;;;;;;;3.70;2.90;;;;;;;;;;5049549;27;83976;-53
2022/08/04 11:34:48;;;;;;;2.90;2.27;;;;;;;;;;5052143;27;83263;-53
2022/08/04 11:37:21;;;;;;;3.33;2.20;;;;;;;;;;5053813;27;83889;-54
2022/08/04 11:39:51;;;;;;;4.30;2.17;;;;;;;;;;5054192;27;82950;-53
2022/08/04 11:42:21;;;;;;;3.50;2.27;;;;;;;;;;5055634;27;83932;-54
2022/08/04 11:44:50;;;;;;;3.37;2.83;;;;;;;;;;5054417;27;82003;-53
2022/08/04 11:47:23;;;;;;;2.57;2.00;;;;;;;;;;5056514;27;82858;-53
2022/08/04 11:49:53;;;;;;;3.80;2.50;;;;;;;;;;5055415;27;81970;-53
2022/08/04 11:52:25;;;;;;;3.90;2.17;;;;;;;;;;5055472;27;82748;-52
2022/08/04 11:54:53;;;;;;;2.83;1.93;;;;;;;;;;5054566;27;81829;-52
2022/08/04 11:57:23;;;;;;;3.40;2.30;;;;;;;;;;5053840;27;81695;-52
2022/08/04 12:00:04;;;;;;;1.87;1.77;;;;;;;;;;5052337;27;81981;-52
2022/08/04 12:02:59;;;;;;;3.83;2.10;;;;;;;;;;5053523;27;83476;-53
2022/08/04 12:05:28;;;;;;;3.00;2.20;;;;;;;;;;5050429;27;83969;-53
2022/08/04 12:08:07;;;;;;;2.10;1.67;;;;;;;;;;5053026;27;82292;-53
2022/08/04 12:10:37;;;;;;;3.40;1.70;;;;;;;;;;5053248;27;82740;-53
2022/08/04 12:13:14;;;;;;;2.73;1.90;;;;;;;;;;5049782;27;82846;-52
2022/08/04 12:15:46;;;;;;;1.70;1.60;;;;;;;;;;5050269;27;83150;-53
2022/08/04 12:18:15;;;;;;;2.97;1.87;;;;;;;;;;5053085;27;82007;-52
2022/08/04 12:20:47;;;;;;;3.27;1.70;;;;;;;;;;5053707;27;81822;-53
2022/08/04 12:23:18;;;;;;;2.40;1.70;;;;;;;;;;5053037;27;81649;-53
2022/08/04 12:25:51;;;;;;;4.90;1.70;;;;;;;;;;5052341;27;83910;-53
2022/08/04 12:28:23;;;;;;;1.57;1.47;;;;;;;;;;5064297;27;82922;-53
2022/08/04 12:30:52;;;;;;;2.23;1.67;;;;;;;;;;5063990;27;82785;-52
2022/08/04 12:33:32;;;;;;;2.23;1.50;;;;;;;;;;5063569;27;82802;-52
2022/08/04 12:36:21;;;;;;;4.67;1.93;;;;;;;;;;5064420;27;82680;-53
2022/08/04 12:38:51;;;;;;;2.60;2.03;;;;;;;;;;5064578;27;82924;-53
2022/08/04 12:41:21;;;;;;;3.27;2.30;;;;;;;;;;5064688;27;81888;-53
2022/08/04 12:43:51;;;;;;;3.03;2.10;;;;;;;;;;5064115;27;82843;-52
2022/08/04 12:46:20;;;;;;;4.43;2.10;;;;;;;;;;5060441;27;82974;-53
2022/08/04 12:48:49;;;;;;;2.97;2.17;;;;;;;;;;5044012;27;82808;-52
2022/08/04 12:51:17;;;;;;;3.30;2.00;;;;;;;;;;5043610;27;81836;-53
2022/08/04 12:54:06;;;;;;;5.10;2.07;;;;;;;;;;5043829;27;82396;-52
2022/08/04 12:56:34;;;;;;;3.33;2.10;;;;;;;;;;5043782;28;85029;-53
2022/08/04 12:59:04;;;;;;;3.17;2.20;;;;;;;;;;5043951;27;83915;-53
2022/08/04 13:01:32;;;;;;;3.90;2.30;;;;;;;;;;5043502;28;81988;-53
2022/08/04 13:04:22;;;;;;;3.33;2.07;;;;;;;;;;5043766;27;82657;-53
2022/08/04 13:06:57;;;;;;;3.10;2.27;;;;;;;;;;5043332;27;82972;-53
2022/08/04 13:09:27;;;;;;;2.87;1.93;;;;;;;;;;5044067;27;83986;-53
2022/08/04 13:11:57;;;;;;;3.70;2.10;;;;;;;;;;5043614;27;82054;-53
2022/08/04 13:14:32;;;;;;;2.63;1.73;;;;;;;;;;5045736;27;82721;-52
2022/08/04 13:17:00;;;;;;;2.07;1.80;;;;;;;;;;5046769;28;84097;-53
2022/08/04 13:19:29;;;;;;;3.17;2.37;;;;;;;;;;5046946;27;82999;-53
2022/08/04 13:21:59;;;;;;;2.23;1.83;;;;;;;;;;5046553;28;82646;-53
2022/08/04 13:24:30;;;;;;;1.97;1.67;;;;;;;;;;5046884;27;83881;-52
2022/08/04 13:27:03;;;;;;;3.07;1.87;;;;;;;;;;5062702;27;84199;-53
2022/08/04 13:29:34;;;;;;;1.27;1.17;;;;;;;;;;5067661;27;82993;-54
2022/08/04 13:32:24;;;;;;;1.47;1.23;;;;;;;;;;5066847;27;81928;-54
2022/08/04 13:34:53;;;;;;;1.73;1.53;;;;;;;;;;5057882;27;82833;-54
2022/08/04 13:37:22;;;;;;;1.87;1.47;;;;;;;;;;5056237;27;81986;-55
2022/08/04 13:39:51;;;;;;;2.03;1.20;;;;;;;;;;5061372;27;82764;-52
2022/08/04 13:42:23;;;;;;;2.57;1.73;;;;;;;;;;5067468;27;81978;-53
2022/08/04 13:44:53;;;;;;;1.27;1.17;;;;;;;;;;5067329;27;82963;-53
2022/08/04 13:47:23;;;;;;;2.47;1.40;;;;;;;;;;5066636;27;84160;-53
2022/08/04 13:50:07;;;;;;;1.53;1.20;;;;;;;;;;5066952;27;82432;-53
2022/08/04 13:52:38;;;;;;;2.03;1.57;;;;;;;;;;5067063;27;81852;-53
2022/08/04 13:55:07;;;;;;;3.37;1.53;;;;;;;;;;5067249;27;83985;-54
2022/08/04 13:57:36;;;;;;;1.90;1.13;;;;;;;;;;5067128;27;83308;-53
2022/08/04 14:00:08;;;;;;;1.67;1.17;;;;;;;;;;5066844;27;83731;-53
2022/08/04 14:02:38;;;;;;;2.13;1.33;;;;;;;;;;5066838;27;81968;-53
2022/08/04 14:05:09;;;;;;;3.63;1.10;;;;;;;;;;5067313;27;83869;-53
2022/08/04 14:07:46;;;;;;;1.77;1.20;;;;;;;;;;5066580;27;82972;-53
2022/08/04 14:10:15;;;;;;;2.23;1.40;;;;;;;;;;5066750;27;83866;-53
2022/08/04 14:12:45;;;;;;;2.80;1.73;;;;;;;;;;5066254;27;82777;-53
2022/08/04 14:15:31;;;;;;;1.77;0.97;;;;;;;;;;5066756;27;82859;-53
2022/08/04 14:18:20;;;;;;;1.23;1.00;;;;;;;;;;5066889;27;81927;-53
2022/08/04 14:20:58;;;;;;;2.50;1.53;;;;;;;;;;5066359;27;83205;-53
2022/08/04 14:23:26;;;;;;;3.20;1.33;;;;;;;;;;5066513;27;81772;-53
2022/08/04 14:26:00;;;;;;;1.67;1.17;;;;;;;;;;5065775;27;82560;-53
2022/08/04 14:28:29;;;;;;;1.00;0.93;;;;;;;;;;5066133;27;83075;-53
2022/08/04 14:31:19;;;;;;;1.20;1.00;;;;;;;;;;5065746;27;82862;-53
2022/08/04 14:33:47;;;;;;;2.83;1.00;;;;;;;;;;5066178;27;81861;-53
2022/08/04 14:36:40;;;;;;;2.00;1.07;;;;;;;;;;5066094;27;82545;-53
2022/08/04 14:39:46;;;;;;;1.53;0.90;;;;;;;;;;5065599;27;82879;-53
2022/08/04 14:42:41;;;;;;;1.27;1.17;;;;;;;;;;5059003;27;82049;-53
2022/08/04 14:45:10;;;;;;;4.77;1.20;;;;;;;;;;5045685;27;81989;-53
2022/08/04 14:47:40;;;;;;;1.20;1.10;;;;;;;;;;5045594;27;82772;-53
2022/08/04 14:50:20;;;;;;;2.60;1.33;;;;;;;;;;5048030;27;84122;-52
2022/08/04 14:52:48;;;;;;;1.13;0.63;;;;;;;;;;5045383;27;82585;-52
2022/08/04 14:55:17;;;;;;;1.70;1.50;;;;;;;;;;5045648;27;82055;-54
2022/08/04 14:57:45;;;;;;;2.67;1.00;;;;;;;;;;5046162;27;83092;-55
2022/08/04 15:00:34;;;;;;;0.77;0.77;;;;;;;;;;5045234;27;82665;-52
2022/08/04 15:03:05;;;;;;;0.77;0.60;;;;;;;;;;5045004;27;82026;-53
2022/08/04 15:05:33;;;;;;;1.50;0.63;;;;;;;;;;5044619;27;82915;-52
2022/08/04 15:08:22;;;;;;;0.73;0.70;;;;;;;;;;5045513;27;81963;-54
2022/08/04 15:10:58;;;;;;;1.13;0.80;;;;;;;;;;5044992;27;82976;-52
2022/08/04 15:13:26;;;;;;;1.27;0.80;;;;;;;;;;5045277;27;83035;-52
2022/08/04 15:15:55;;;;;;;3.60;0.83;;;;;;;;;;5045125;27;81903;-53
2022/08/04 15:18:37;;;;;;;1.10;0.73;;;;;;;;;;5045122;27;83954;-52
2022/08/04 15:21:06;;;;;;;0.80;0.80;;;;;;;;;;5044474;28;83048;-53
2022/08/04 15:23:35;;;;;;;0.90;0.70;;;;;;;;;;5045547;28;84113;-53